Sandy Hook, Virginia
Current Conditions -  °F | °C
As of 12:15 PM on Thursday 18 Dec 2014 (Local Time) from K7W4 Reporting Station
Clear Clear  
Wind Chill: 38°   Ceiling: Unl
Heat Index: 38°   Visibility: 10mi
Dew Point: 21°   Wind: 0mph
Humidity: 51%   Direction: NA
Pressure: 30.13"   Gusts: NA
Location:  37.75°N, 77.91°W
Report Text: K7W4 181715Z AUTO 00000KT 10SM CLR 04/M06 A3013 RMK AO1 T00351059
Loading
Personal Weather Stations






























Interactive Weather Map New forecast layout! Learn more

10-Day Weather Forecast

Advertisements
Track Severe Weather on mobile